createdAt,value
2019-03-28T00:00:11.420Z,7.26
2019-03-28T00:02:41.004Z,7.24
2019-03-28T00:05:10.730Z,7.26
2019-03-28T00:07:40.259Z,7.31
2019-03-28T00:10:10.350Z,7.30
2019-03-28T00:12:40.192Z,7.22
2019-03-28T00:15:10.085Z,7.22
2019-03-28T00:17:39.568Z,7.18
2019-03-28T00:20:10.075Z,7.14
2019-03-28T00:22:41.323Z,6.97
2019-03-28T00:25:12.995Z,6.94
2019-03-28T00:27:42.522Z,7.02
2019-03-28T00:30:12.169Z,6.98
2019-03-28T00:32:41.665Z,6.90
2019-03-28T00:35:11.543Z,6.78
2019-03-28T00:37:41.049Z,6.69
2019-03-28T00:40:10.861Z,6.63
2019-03-28T00:42:40.444Z,6.58
2019-03-28T00:45:10.285Z,6.53
2019-03-28T00:47:39.833Z,6.52
2019-03-28T00:50:09.876Z,6.53
2019-03-28T00:52:39.455Z,6.46
2019-03-28T00:55:09.454Z,6.47
2019-03-28T00:57:38.987Z,6.50
2019-03-28T01:00:09.041Z,6.53
2019-03-28T01:02:38.534Z,6.55
2019-03-28T01:05:08.295Z,6.62
2019-03-28T01:07:37.806Z,6.73
2019-03-28T01:10:07.848Z,6.87
2019-03-28T01:12:37.361Z,6.90
2019-03-28T01:15:09.439Z,7.02
2019-03-28T01:17:39.041Z,6.98
2019-03-28T01:20:09.225Z,7.12
2019-03-28T01:22:38.747Z,7.08
2019-03-28T01:25:08.580Z,6.98
2019-03-28T01:27:38.070Z,6.93
2019-03-28T01:30:09.063Z,6.97
2019-03-28T01:32:38.579Z,6.95
2019-03-28T01:35:08.322Z,6.94
2019-03-28T01:37:37.815Z,6.93
2019-03-28T01:40:08.245Z,6.94
2019-03-28T01:42:37.722Z,6.96
2019-03-28T01:45:08.478Z,6.97
2019-03-28T01:47:38.065Z,6.95
2019-03-28T01:50:08.488Z,6.90
2019-03-28T01:52:38.048Z,6.91
2019-03-28T01:55:08.675Z,6.91
2019-03-28T01:57:38.907Z,6.89
2019-03-28T02:00:12.318Z,6.89
2019-03-28T02:02:42.057Z,6.90
2019-03-28T02:05:11.821Z,6.87
2019-03-28T02:07:41.405Z,6.87
2019-03-28T02:10:11.252Z,6.89
2019-03-28T02:12:40.867Z,6.88
2019-03-28T02:15:11.116Z,6.92
2019-03-28T02:17:40.803Z,6.97
2019-03-28T02:20:11.625Z,6.99
2019-03-28T02:22:41.276Z,6.97
2019-03-28T02:25:11.140Z,6.98
2019-03-28T02:27:40.736Z,7.02
2019-03-28T02:30:10.944Z,7.07
2019-03-28T02:32:40.449Z,7.15
2019-03-28T02:35:10.273Z,7.21
2019-03-28T02:37:39.769Z,7.25
2019-03-28T02:40:09.516Z,7.32
2019-03-28T02:42:39.075Z,7.37
2019-03-28T02:45:09.323Z,7.41
2019-03-28T02:47:38.827Z,7.37
2019-03-28T02:50:08.658Z,7.42
2019-03-28T02:52:38.232Z,7.48
2019-03-28T02:55:08.528Z,7.50
2019-03-28T02:57:41.787Z,7.52
2019-03-28T03:00:10.426Z,7.55
2019-03-28T03:02:39.928Z,7.54
2019-03-28T03:05:10.248Z,7.53
2019-03-28T03:07:39.993Z,7.50
2019-03-28T03:10:09.827Z,7.51
2019-03-28T03:12:39.350Z,7.55
2019-03-28T03:15:10.165Z,7.51
2019-03-28T03:17:39.710Z,7.55
2019-03-28T03:20:10.036Z,7.53
2019-03-28T03:22:39.589Z,7.49
2019-03-28T03:25:09.928Z,7.53
2019-03-28T03:27:55.977Z,7.54
2019-03-28T03:30:12.943Z,7.57
2019-03-28T03:32:42.768Z,7.55
2019-03-28T03:35:12.820Z,7.62
2019-03-28T03:37:42.459Z,7.62
2019-03-28T03:40:12.377Z,7.63
2019-03-28T03:42:42.021Z,7.58
2019-03-28T03:45:11.750Z,7.51
2019-03-28T03:47:41.403Z,7.48
2019-03-28T03:50:12.688Z,7.41
2019-03-28T03:52:42.193Z,7.46
2019-03-28T03:55:11.749Z,7.50
2019-03-28T03:57:41.242Z,7.50
2019-03-28T04:00:11.196Z,7.52
2019-03-28T04:02:40.686Z,7.59
2019-03-28T04:05:10.339Z,7.62
2019-03-28T04:07:39.822Z,7.69
2019-03-28T04:10:09.587Z,7.65
2019-03-28T04:12:39.070Z,7.59
2019-03-28T04:15:08.819Z,7.61
2019-03-28T04:17:38.311Z,7.65
2019-03-28T04:20:08.546Z,7.73
2019-03-28T04:22:38.023Z,7.60
2019-03-28T04:25:07.849Z,7.74
2019-03-28T04:27:37.345Z,7.73
2019-03-28T04:30:08.918Z,7.65
2019-03-28T04:32:38.411Z,7.69
2019-03-28T04:35:08.261Z,7.63
2019-03-28T04:37:37.779Z,7.71
2019-03-28T04:40:09.181Z,7.64
2019-03-28T04:42:38.667Z,7.63
2019-03-28T04:45:09.094Z,7.54
2019-03-28T04:47:38.656Z,7.53
2019-03-28T04:50:08.667Z,7.51
2019-03-28T04:52:38.243Z,7.56
2019-03-28T04:55:08.366Z,7.50
2019-03-28T04:57:40.892Z,7.61
2019-03-28T05:00:11.072Z,7.64
2019-03-28T05:02:40.641Z,7.62
2019-03-28T05:05:10.486Z,7.57
2019-03-28T05:07:40.048Z,7.55
2019-03-28T05:10:11.051Z,7.52
2019-03-28T05:12:40.637Z,7.57
2019-03-28T05:15:11.247Z,7.59
2019-03-28T05:17:40.846Z,7.57
2019-03-28T05:20:13.248Z,7.56
2019-03-28T05:22:42.423Z,7.62
2019-03-28T05:25:12.071Z,7.61
2019-03-28T05:27:41.573Z,7.58
2019-03-28T05:30:12.676Z,7.64
2019-03-28T05:32:42.183Z,7.71
2019-03-28T05:35:12.630Z,7.74
2019-03-28T05:37:42.106Z,7.80
2019-03-28T05:40:11.858Z,7.81
2019-03-28T05:42:41.409Z,7.78
2019-03-28T05:45:11.908Z,7.73
2019-03-28T05:47:41.583Z,7.69
2019-03-28T05:50:11.394Z,7.70
2019-03-28T05:52:40.879Z,7.65
2019-03-28T05:55:10.649Z,7.64
2019-03-28T05:57:40.151Z,7.68
2019-03-28T06:00:10.384Z,7.83
2019-03-28T06:02:40.543Z,7.89
2019-03-28T06:05:10.142Z,7.90
2019-03-28T06:07:39.689Z,7.78
2019-03-28T06:10:10.365Z,7.84
2019-03-28T06:12:40.025Z,7.88
2019-03-28T06:15:10.059Z,7.88
2019-03-28T06:17:39.682Z,7.97
2019-03-28T06:20:10.816Z,8.16
2019-03-28T06:22:40.336Z,8.28
2019-03-28T06:25:10.060Z,8.14
2019-03-28T06:27:39.547Z,8.26
2019-03-28T06:30:11.239Z,8.22
2019-03-28T06:32:43.180Z,8.30
2019-03-28T06:35:12.043Z,8.46
2019-03-28T06:37:41.551Z,8.24
2019-03-28T06:40:11.286Z,8.46
2019-03-28T06:42:40.859Z,8.51
2019-03-28T06:45:10.825Z,8.32
2019-03-28T06:47:40.372Z,8.21
2019-03-28T06:50:10.490Z,8.37
2019-03-28T06:52:40.238Z,8.40
2019-03-28T06:55:10.290Z,8.16
2019-03-28T06:57:39.763Z,8.22
2019-03-28T07:00:11.388Z,8.50
2019-03-28T07:02:41.047Z,8.40
2019-03-28T07:05:11.467Z,8.43
2019-03-28T07:07:40.999Z,8.44
2019-03-28T07:10:11.419Z,8.70
2019-03-28T07:12:40.937Z,8.54
2019-03-28T07:15:11.262Z,8.67
2019-03-28T07:17:40.779Z,8.78
2019-03-28T07:20:11.987Z,8.75
2019-03-28T07:22:41.495Z,8.79
2019-03-28T07:25:11.168Z,8.67
2019-03-28T07:27:40.651Z,8.77
2019-03-28T07:30:13.078Z,9.11
2019-03-28T07:32:43.754Z,9.19
2019-03-28T07:35:13.709Z,9.16
2019-03-28T07:37:44.539Z,9.52
2019-03-28T07:40:15.784Z,9.34
2019-03-28T07:42:45.269Z,9.62
2019-03-28T07:45:15.218Z,9.89
2019-03-28T07:47:44.876Z,9.72
2019-03-28T07:53:16.032Z,10.11
2019-03-28T07:56:23.878Z,9.82
2019-03-28T07:59:12.740Z,9.81
2019-03-28T08:02:01.599Z,10.11
2019-03-28T08:04:43.093Z,10.37
2019-03-28T08:07:44.362Z,10.66
2019-03-28T08:10:22.575Z,10.77
2019-03-28T08:13:11.415Z,11.30
2019-03-28T08:16:00.265Z,11.35
2019-03-28T08:18:49.177Z,11.01
2019-03-28T08:21:38.036Z,10.99
2019-03-28T08:24:26.857Z,11.54
2019-03-28T08:27:15.702Z,11.48
2019-03-28T08:30:25.448Z,11.80
2019-03-28T08:33:14.301Z,11.74
2019-03-28T08:36:03.196Z,11.73
2019-03-28T08:38:52.205Z,11.83
2019-03-28T08:41:41.116Z,12.02
2019-03-28T08:44:29.949Z,11.68
2019-03-28T08:47:18.839Z,12.09
2019-03-28T08:53:36.046Z,12.68
2019-03-28T08:56:24.900Z,12.07
2019-03-28T08:59:13.804Z,11.76
2019-03-28T09:04:56.860Z,11.80
2019-03-28T09:07:45.707Z,11.82
2019-03-28T09:10:34.619Z,11.94
2019-03-28T09:13:23.467Z,11.99
2019-03-28T09:16:12.336Z,12.01
2019-03-28T09:19:01.162Z,11.82
2019-03-28T09:21:50.005Z,11.79
2019-03-28T09:24:38.837Z,11.64
2019-03-28T09:27:27.728Z,12.11
2019-03-28T09:30:48.177Z,11.81
2019-03-28T09:33:47.091Z,11.87
2019-03-28T09:36:16.604Z,11.79
2019-03-28T09:39:26.376Z,11.91
2019-03-28T09:42:15.207Z,11.55
2019-03-28T09:45:24.939Z,11.37
2019-03-28T09:48:13.802Z,11.83
2019-03-28T09:51:02.628Z,11.99
2019-03-28T09:53:51.486Z,11.94
2019-03-28T09:56:40.390Z,12.37
2019-03-28T09:59:29.252Z,12.66
2019-03-28T10:02:18.093Z,12.91
2019-03-28T10:05:00.566Z,12.32
2019-03-28T10:07:49.350Z,12.41
2019-03-28T10:10:38.205Z,12.80
2019-03-28T10:13:27.101Z,13.19
2019-03-28T10:16:16.053Z,13.06
2019-03-28T10:19:04.957Z,13.95
2019-03-28T10:21:53.834Z,13.93
2019-03-28T10:24:42.738Z,13.64
2019-03-28T10:27:31.590Z,13.09
2019-03-28T10:30:41.303Z,13.72
2019-03-28T10:33:30.146Z,13.70
2019-03-28T10:36:19.005Z,14.15
2019-03-28T10:42:23.575Z,14.02
2019-03-28T10:45:12.499Z,15.62
2019-03-28T10:48:01.309Z,15.62
2019-03-28T10:50:50.297Z,16.30
2019-03-28T10:53:39.146Z,15.35
2019-03-28T10:56:27.983Z,16.30
2019-03-28T10:59:23.567Z,16.24
2019-03-28T11:02:07.556Z,16.04
2019-03-28T11:04:49.219Z,16.28
2019-03-28T11:07:38.094Z,16.29
2019-03-28T11:10:30.371Z,15.91
2019-03-28T11:13:17.552Z,16.79
2019-03-28T11:16:06.380Z,16.88
2019-03-28T11:18:55.241Z,17.27
2019-03-28T11:21:44.086Z,17.17
2019-03-28T11:24:32.943Z,17.18
2019-03-28T11:27:21.824Z,16.20
2019-03-28T11:33:39.127Z,16.76
2019-03-28T11:36:28.029Z,17.48
2019-03-28T11:39:16.840Z,17.22
2019-03-28T11:42:05.769Z,17.65
2019-03-28T11:44:54.634Z,18.81
2019-03-28T11:47:43.453Z,18.61
2019-03-28T11:50:32.382Z,19.48
2019-03-28T11:53:21.213Z,19.08
2019-03-28T11:56:10.058Z,19.14
2019-03-28T11:58:58.959Z,18.57
2019-03-28T12:01:59.407Z,18.98
2019-03-28T12:04:31.598Z,18.87
2019-03-28T12:07:01.179Z,19.21
2019-03-28T12:09:50.011Z,18.30
2019-03-28T12:12:38.869Z,18.70
2019-03-28T12:15:27.694Z,18.16
2019-03-28T12:18:16.546Z,20.07
2019-03-28T12:21:05.380Z,19.19
2019-03-28T12:23:54.205Z,18.68
2019-03-28T12:26:43.131Z,18.35
2019-03-28T12:29:35.558Z,18.85
2019-03-28T12:32:22.612Z,18.56
2019-03-28T12:35:11.617Z,17.51
2019-03-28T12:38:00.438Z,17.74
2019-03-28T12:40:49.311Z,18.04
2019-03-28T12:43:38.160Z,18.52
2019-03-28T12:46:26.980Z,17.80
2019-03-28T12:49:15.843Z,17.99
2019-03-28T12:52:04.720Z,18.34
2019-03-28T12:54:54.698Z,18.71
2019-03-28T12:57:44.123Z,17.37
2019-03-28T13:00:52.373Z,17.03
2019-03-28T13:03:45.745Z,17.50
2019-03-28T13:06:24.944Z,17.01
2019-03-28T13:09:13.890Z,17.02
2019-03-28T13:12:02.730Z,17.69
2019-03-28T13:14:51.671Z,17.76
2019-03-28T13:17:40.577Z,18.42
2019-03-28T13:20:29.516Z,17.74
2019-03-28T13:23:18.357Z,17.97
2019-03-28T13:26:07.231Z,18.62
2019-03-28T13:28:56.203Z,18.86
2019-03-28T13:31:45.120Z,17.63
2019-03-28T13:34:33.956Z,18.58
2019-03-28T13:37:22.824Z,19.02
2019-03-28T13:40:11.791Z,18.92
2019-03-28T13:43:00.675Z,18.56
2019-03-28T13:45:49.525Z,18.85
2019-03-28T13:48:38.444Z,18.42
2019-03-28T13:51:27.284Z,18.79
2019-03-28T13:54:16.133Z,19.05
2019-03-28T13:57:04.973Z,17.94
2019-03-28T13:59:53.954Z,18.06
2019-03-28T14:02:54.856Z,17.80
2019-03-28T14:05:25.962Z,17.68
2019-03-28T14:08:14.823Z,17.94
2019-03-28T14:11:03.668Z,17.63
2019-03-28T14:13:52.565Z,17.47
2019-03-28T14:16:41.423Z,17.47
2019-03-28T14:19:30.256Z,17.70
2019-03-28T14:25:14.762Z,17.63
2019-03-28T14:28:03.668Z,17.67
2019-03-28T14:30:52.541Z,18.32
2019-03-28T14:33:41.452Z,17.86
2019-03-28T14:36:30.286Z,18.03
2019-03-28T14:39:19.117Z,17.68
2019-03-28T14:42:07.957Z,17.65
2019-03-28T14:44:56.836Z,17.40
2019-03-28T14:47:45.666Z,17.56
2019-03-28T14:53:49.967Z,16.64
2019-03-28T14:56:39.069Z,17.53
2019-03-28T15:02:56.177Z,17.15
2019-03-28T15:05:38.178Z,16.94
2019-03-28T15:08:27.017Z,16.73
2019-03-28T15:11:15.873Z,16.45
2019-03-28T15:14:04.759Z,16.54
2019-03-28T15:16:53.576Z,16.47
2019-03-28T15:19:42.454Z,16.22
2019-03-28T15:22:31.294Z,15.95
2019-03-28T15:25:20.224Z,15.98
2019-03-28T15:28:09.047Z,15.46
2019-03-28T15:30:57.892Z,15.74
2019-03-28T15:33:46.770Z,15.83
2019-03-28T15:36:35.630Z,15.74
2019-03-28T15:39:24.501Z,15.51
2019-03-28T15:42:13.342Z,15.38
2019-03-28T15:45:02.400Z,15.49
2019-03-28T15:47:52.164Z,15.13
2019-03-28T15:50:41.873Z,15.25
2019-03-28T15:53:30.710Z,15.39
2019-03-28T15:56:19.632Z,14.93
2019-03-28T15:59:08.544Z,14.66
2019-03-28T16:01:59.938Z,14.73
2019-03-28T16:04:48.047Z,14.85
2019-03-28T16:07:36.974Z,14.66
2019-03-28T16:10:25.785Z,14.91
2019-03-28T16:13:14.715Z,14.72
2019-03-28T16:16:03.613Z,14.35
2019-03-28T16:18:52.469Z,14.28
2019-03-28T16:21:41.311Z,14.31
2019-03-28T16:24:30.256Z,14.24
2019-03-28T16:27:19.107Z,14.27
2019-03-28T16:30:28.823Z,14.27
2019-03-28T16:33:17.673Z,14.05
2019-03-28T16:36:06.592Z,14.04
2019-03-28T16:38:55.450Z,14.00
2019-03-28T16:41:44.358Z,13.91
2019-03-28T16:44:33.204Z,13.82
2019-03-28T16:47:22.044Z,13.80
2019-03-28T16:50:11.062Z,13.83
2019-03-28T16:52:59.903Z,13.75
2019-03-28T16:55:48.797Z,13.80
2019-03-28T16:58:37.685Z,13.76
2019-03-28T17:01:26.620Z,13.67
2019-03-28T17:04:21.045Z,13.59
2019-03-28T17:07:00.590Z,13.61
2019-03-28T17:09:50.400Z,13.58
2019-03-28T17:12:31.916Z,13.52
2019-03-28T17:15:20.759Z,13.48
2019-03-28T17:18:09.668Z,13.35
2019-03-28T17:20:58.573Z,13.35
2019-03-28T17:23:47.433Z,13.37
2019-03-28T17:26:36.402Z,13.34
2019-03-28T17:29:25.286Z,13.26
2019-03-28T17:32:14.165Z,13.36
2019-03-28T17:35:03.785Z,13.23
2019-03-28T17:37:53.675Z,13.27
2019-03-28T17:40:42.579Z,13.16
2019-03-28T17:43:31.701Z,13.06
2019-03-28T17:46:20.559Z,13.11
2019-03-28T17:49:09.476Z,13.08
2019-03-28T17:51:58.331Z,13.01
2019-03-28T17:54:47.202Z,12.95
2019-03-28T17:57:36.057Z,12.86
2019-03-28T18:00:44.446Z,12.85
2019-03-28T18:03:33.298Z,12.91
2019-03-28T18:06:15.009Z,12.82
2019-03-28T18:12:19.112Z,12.65
2019-03-28T18:15:08.112Z,12.73
2019-03-28T18:17:56.945Z,12.75
2019-03-28T18:20:45.813Z,12.76
2019-03-28T18:23:34.638Z,12.72
2019-03-28T18:26:23.782Z,12.65
2019-03-28T18:29:12.657Z,12.70
2019-03-28T18:32:01.554Z,12.72
2019-03-28T18:35:04.612Z,12.64
2019-03-28T18:38:00.205Z,12.77
2019-03-28T18:40:49.301Z,12.72
2019-03-28T18:43:38.184Z,12.55
2019-03-28T18:46:27.121Z,12.45
2019-03-28T18:49:15.972Z,12.27
2019-03-28T18:52:07.393Z,12.32
2019-03-28T18:54:55.473Z,12.21
2019-03-28T18:57:44.375Z,12.18
2019-03-28T19:00:33.296Z,12.15
2019-03-28T19:03:22.259Z,12.09
2019-03-28T19:06:04.475Z,12.14
2019-03-28T19:08:53.816Z,12.01
2019-03-28T19:11:43.937Z,11.77
2019-03-28T19:14:32.794Z,11.83
2019-03-28T19:17:21.731Z,11.72
2019-03-28T19:20:10.774Z,11.53
2019-03-28T19:22:59.681Z,11.42
2019-03-28T19:25:48.542Z,11.31
2019-03-28T19:28:37.437Z,11.03
2019-03-28T19:31:26.308Z,10.81
2019-03-28T19:34:15.185Z,10.56
2019-03-28T19:37:04.091Z,10.32
2019-03-28T19:39:52.952Z,10.08
2019-03-28T19:42:41.810Z,9.83
2019-03-28T19:45:50.056Z,9.64
2019-03-28T19:48:38.992Z,9.41
2019-03-28T19:51:47.837Z,9.29
2019-03-28T19:54:37.675Z,9.05
2019-03-28T19:57:26.546Z,9.00
2019-03-28T20:00:15.534Z,8.90
2019-03-28T20:03:04.532Z,8.99
2019-03-28T20:05:53.443Z,8.90
2019-03-28T20:08:34.935Z,8.82
2019-03-28T20:11:23.917Z,8.82
2019-03-28T20:14:14.340Z,8.63
2019-03-28T20:17:03.231Z,8.51
2019-03-28T20:19:52.110Z,8.39
2019-03-28T20:22:40.984Z,8.36
2019-03-28T20:25:29.850Z,8.31
2019-03-28T20:28:18.790Z,8.20
2019-03-28T20:31:07.752Z,8.25
2019-03-28T20:33:56.608Z,8.14
2019-03-28T20:36:45.441Z,8.14
2019-03-28T20:39:34.384Z,8.17
2019-03-28T20:42:23.237Z,8.04
2019-03-28T20:48:27.226Z,7.97
2019-03-28T20:51:16.067Z,7.89
2019-03-28T20:54:07.755Z,7.96
2019-03-28T20:56:57.850Z,7.88
2019-03-28T20:59:46.837Z,7.84
2019-03-28T21:02:36.945Z,7.81
2019-03-28T21:05:25.774Z,7.79
2019-03-28T21:08:08.133Z,7.79
2019-03-28T21:10:56.982Z,7.70
2019-03-28T21:13:45.819Z,7.71
2019-03-28T21:16:34.661Z,7.72
2019-03-28T21:19:23.521Z,7.73
2019-03-28T21:22:12.368Z,7.71
2019-03-28T21:25:01.259Z,7.56
2019-03-28T21:27:50.208Z,7.46
2019-03-28T21:33:33.304Z,7.39
2019-03-28T21:36:29.719Z,7.32
2019-03-28T21:39:12.731Z,7.21
2019-03-28T21:42:01.583Z,7.14
2019-03-28T21:44:50.526Z,7.03
2019-03-28T21:47:39.362Z,6.92
2019-03-28T21:50:28.214Z,6.85
2019-03-28T21:53:19.800Z,6.85
2019-03-28T21:56:07.606Z,6.75
2019-03-28T21:58:56.892Z,6.66
2019-03-28T22:01:47.049Z,6.61
2019-03-28T22:04:35.923Z,6.45
2019-03-28T22:07:18.031Z,6.37
2019-03-28T22:10:27.755Z,6.30
2019-03-28T22:13:16.580Z,6.21
2019-03-28T22:16:07.688Z,6.18
2019-03-28T22:18:56.071Z,6.17
2019-03-28T22:21:44.928Z,6.12
2019-03-28T22:24:33.762Z,6.03
2019-03-28T22:27:22.637Z,5.98
2019-03-28T22:33:39.855Z,5.91
2019-03-28T22:36:28.673Z,5.86
2019-03-28T22:39:17.558Z,5.82
2019-03-28T22:42:06.401Z,5.76
2019-03-28T22:44:55.238Z,5.72
2019-03-28T22:47:24.761Z,5.75
2019-03-28T22:50:13.788Z,5.73
2019-03-28T22:53:02.633Z,5.69
2019-03-28T22:55:51.456Z,5.65
2019-03-28T22:58:40.323Z,5.72
2019-03-28T23:01:29.311Z,5.59
2019-03-28T23:04:37.319Z,5.57
2019-03-28T23:07:19.098Z,5.65
2019-03-28T23:10:27.970Z,5.55
2019-03-28T23:13:16.826Z,5.54
2019-03-28T23:16:24.913Z,5.49
2019-03-28T23:19:13.747Z,5.44
2019-03-28T23:22:02.604Z,5.40
2019-03-28T23:24:51.434Z,5.37
2019-03-28T23:27:40.295Z,5.29
2019-03-28T23:30:29.131Z,5.24
2019-03-28T23:33:17.988Z,5.18
2019-03-28T23:36:06.998Z,5.18
2019-03-28T23:38:57.388Z,5.08
2019-03-28T23:41:46.203Z,5.13
2019-03-28T23:44:35.044Z,5.06
2019-03-28T23:47:23.883Z,5.04
2019-03-28T23:50:12.794Z,5.01
2019-03-28T23:53:01.702Z,5.02
2019-03-28T23:55:50.544Z,5.07
2019-03-28T23:58:39.369Z,5.14
